^^
Saratoga-Weather Station Historical Data
Daily Summary for April 25, 2020 Units:  Metric    English   Both
Daily Weekly Monthly Yearly Custom
  High: Low: Average:
Temperature: 5.1 °C 2.3 °C 3.5 °C
Dew Point: 2.2 °C 0.1 °C 1 °C
Humidity: 91% 71% 84%
Wind Speed: 17.7km/h 0km/h 5.3km/h
Wind Gust: 20.9km/h - -
Wind- - West
Pressure: 1025.1 hPa 1016.9 hPa -
Precipitation: 0.0 mm    
Historical Graphs
 
 
Tabular Data for April 25, 2020
Time Temperature Dew Point Pressure Wind Wind Speed Wind Gust Humidity Rainfall Rate (Hourly) solar
00:01 3 °C 1.7 °C 1016.9 hPa WNW 4.7 km/h 6.4 km/h 91% 0.0 mm 0 W/m2
00:06 3 °C 1.7 °C 1016.9 hPa West 4.7 km/h 9.7 km/h 91% 0.0 mm 0 W/m2
00:11 3.1 °C 1.8 °C 1016.9 hPa WNW 3.2 km/h 6.4 km/h 91% 0.0 mm 0 W/m2
00:16 3 °C 1.7 °C 1016.9 hPa WSW 3.2 km/h 6.4 km/h 91% 0.0 mm 0 W/m2
00:21 2.9 °C 1.4 °C 1016.9 hPa West 9.7 km/h 9.7 km/h 90% 0.0 mm 0 W/m2
00:26 2.9 °C 1.4 °C 1016.9 hPa West 13 km/h 12.9 km/h 90% 0.0 mm 0 W/m2
00:31 2.9 °C 1.4 °C 1016.9 hPa WNW 4.7 km/h 8 km/h 90% 0.0 mm 0 W/m2
00:36 2.9 °C 1.4 °C 1016.9 hPa West 3.2 km/h 6.4 km/h 90% 0.0 mm 0 W/m2
00:41 2.8 °C 1.5 °C 1016.9 hPa WNW 3.2 km/h 8 km/h 91% 0.0 mm 0 W/m2
00:46 2.9 °C 1.6 °C 1017.3 hPa NW 4.7 km/h 4.8 km/h 91% 0.0 mm 0 W/m2
00:51 2.9 °C 1.6 °C 1017.3 hPa WSW 3.2 km/h 8 km/h 91% 0.0 mm 0 W/m2
00:56 2.9 °C 1.6 °C 1017.3 hPa West 1.4 km/h 3.2 km/h 91% 0.0 mm 0 W/m2
01:01 2.8 °C 1.5 °C 1017.3 hPa WNW 3.2 km/h 6.4 km/h 91% 0.0 mm 0 W/m2
01:06 2.8 °C 1.5 °C 1017.3 hPa NW 3.2 km/h 12.9 km/h 91% 0.0 mm 0 W/m2
01:11 2.9 °C 1.6 °C 1017.3 hPa Calm   6.4 km/h 91% 0.0 mm 0 W/m2
01:16 2.9 °C 1.6 °C 1017.3 hPa SW 4.7 km/h 6.4 km/h 91% 0.0 mm 0 W/m2
01:21 2.9 °C 1.6 °C 1017.3 hPa WNW 3.2 km/h 6.4 km/h 91% 0.0 mm 0 W/m2
01:26 3.1 °C 1.8 °C 1017.3 hPa WNW 4.7 km/h 8 km/h 91% 0.0 mm 0 W/m2
01:31 3.1 °C 1.8 °C 1017.3 hPa WNW 6.4 km/h 8 km/h 91% 0.0 mm 0 W/m2
01:36 3.1 °C 1.8 °C 1017.3 hPa West 9.7 km/h 11.3 km/h 91% 0.0 mm 0 W/m2
01:41 3.1 °C 1.8 °C 1017.3 hPa West 6.4 km/h 11.3 km/h 91% 0.0 mm 0 W/m2
01:46 3.1 °C 1.8 °C 1017.6 hPa WNW 14.3 km/h 16.1 km/h 91% 0.0 mm 0 W/m2
01:51 3.1 °C 1.8 °C 1017.6 hPa WNW 7.9 km/h 11.3 km/h 91% 0.0 mm 0 W/m2
01:56 3.2 °C 1.9 °C 1017.6 hPa WNW 6.4 km/h 14.5 km/h 91% 0.0 mm 0 W/m2
02:01 3.2 °C 1.9 °C 1017.6 hPa WSW 4.7 km/h 14.5 km/h 91% 0.0 mm 0 W/m2
02:06 3.3 °C 2 °C 1017.6 hPa West 6.4 km/h 16.1 km/h 91% 0.0 mm 0 W/m2
02:11 3.3 °C 2 °C 1017.6 hPa West 4.7 km/h 16.1 km/h 91% 0.0 mm 0 W/m2
02:16 3.3 °C 2 °C 1017.6 hPa WSW 7.9 km/h 12.9 km/h 91% 0.0 mm 0 W/m2
02:21 3.4 °C 2.1 °C 1018.0 hPa West 6.4 km/h 8 km/h 91% 0.0 mm 0 W/m2
02:26 3.4 °C 2.1 °C 1018.0 hPa WNW 11.1 km/h 12.9 km/h 91% 0.0 mm 0 W/m2
02:31 3.4 °C 2.1 °C 1018.0 hPa NW 7.9 km/h 11.3 km/h 91% 0.0 mm 0 W/m2
02:36 3.4 °C 1.9 °C 1018.0 hPa West 4.7 km/h 14.5 km/h 90% 0.0 mm 0 W/m2
02:41 3.3 °C 2 °C 1018.0 hPa West 4.7 km/h 12.9 km/h 91% 0.0 mm 0 W/m2
02:46 3.3 °C 2 °C 1018.0 hPa West 4.7 km/h 11.3 km/h 91% 0.0 mm 0 W/m2
02:51 3.3 °C 2 °C 1018.3 hPa WSW 6.4 km/h 9.7 km/h 91% 0.0 mm 0 W/m2
02:56 3.3 °C 2 °C 1018.3 hPa WNW 6.4 km/h 12.9 km/h 91% 0.0 mm 0 W/m2
03:01 3.4 °C 2.1 °C 1018.3 hPa WNW 4.7 km/h 12.9 km/h 91% 0.0 mm 0 W/m2
03:07 3.4 °C 2.1 °C 1018.3 hPa WSW 6.4 km/h 12.9 km/h 91% 0.0 mm 0 W/m2
03:12 3.3 °C 2 °C 1018.0 hPa West 3.2 km/h 12.9 km/h 91% 0.0 mm 0 W/m2
03:17 3.3 °C 2 °C 1018.3 hPa West 9.7 km/h 12.9 km/h 91% 0.0 mm 0 W/m2
03:22 3.2 °C 1.9 °C 1018.3 hPa West 3.2 km/h 6.4 km/h 91% 0.0 mm 0 W/m2
03:27 3.2 °C 1.9 °C 1018.3 hPa West 3.2 km/h 12.9 km/h 91% 0.0 mm 0 W/m2
03:32 3.2 °C 1.9 °C 1018.3 hPa West 4.7 km/h 9.7 km/h 91% 0.0 mm 0 W/m2
03:37 3.2 °C 1.9 °C 1018.3 hPa NW 3.2 km/h 11.3 km/h 91% 0.0 mm 0 W/m2
03:42 3.3 °C 2 °C 1018.6 hPa West 4.7 km/h 11.3 km/h 91% 0.0 mm 0 W/m2
03:47 3.4 °C 2.1 °C 1018.6 hPa West 9.7 km/h 11.3 km/h 91% 0.0 mm 0 W/m2
03:52 3.5 °C 2.2 °C 1018.6 hPa West 6.4 km/h 12.9 km/h 91% 0.0 mm 0 W/m2
03:57 3.6 °C 2.1 °C 1018.6 hPa WSW 4.7 km/h 11.3 km/h 90% 0.0 mm 0 W/m2
04:02 3.6 °C 2.1 °C 1018.6 hPa WSW 6.4 km/h 8 km/h 90% 0.0 mm 0 W/m2
04:07 3.6 °C 2.1 °C 1018.6 hPa WSW 4.7 km/h 12.9 km/h 90% 0.0 mm 0 W/m2
04:12 3.7 °C 2.1 °C 1018.6 hPa West 6.4 km/h 11.3 km/h 89% 0.0 mm 0 W/m2
04:17 3.7 °C 2.1 °C 1018.6 hPa WNW 4.7 km/h 9.7 km/h 89% 0.0 mm 0 W/m2
04:22 3.7 °C 2.1 °C 1018.6 hPa West 4.7 km/h 9.7 km/h 89% 0.0 mm 0 W/m2
04:27 3.6 °C 2 °C 1018.6 hPa West 4.7 km/h 9.7 km/h 89% 0.0 mm 0 W/m2
04:32 3.6 °C 2 °C 1018.6 hPa WNW 4.7 km/h 6.4 km/h 89% 0.0 mm 0 W/m2
04:37 3.6 °C 2 °C 1018.6 hPa NW 3.2 km/h 9.7 km/h 89% 0.0 mm 0 W/m2
04:42 3.6 °C 2 °C 1018.6 hPa WSW 11.1 km/h 11.3 km/h 89% 0.0 mm 0 W/m2
04:47 3.6 °C 2 °C 1019.0 hPa WNW 4.7 km/h 6.4 km/h 89% 0.0 mm 0 W/m2
04:52 3.5 °C 2 °C 1019.0 hPa NW 4.7 km/h 9.7 km/h 90% 0.0 mm 0 W/m2
04:57 3.5 °C 2 °C 1019.0 hPa West 3.2 km/h 4.8 km/h 90% 0.0 mm 0 W/m2
05:02 3.4 °C 1.9 °C 1019.0 hPa Calm   3.2 km/h 90% 0.0 mm 0 W/m2
05:07 3.4 °C 1.9 °C 1019.0 hPa West 3.2 km/h 4.8 km/h 90% 0.0 mm 0 W/m2
05:12 3.4 °C 1.9 °C 1019.0 hPa NW 6.4 km/h 16.1 km/h 90% 0.0 mm 0 W/m2
05:17 3.4 °C 1.9 °C 1019.0 hPa NW 4.7 km/h 6.4 km/h 90% 0.0 mm 0 W/m2
05:22 3.5 °C 2 °C 1018.6 hPa West 4.7 km/h 16.1 km/h 90% 0.0 mm 0 W/m2
05:27 3.6 °C 2.1 °C 1019.0 hPa WSW 4.7 km/h 9.7 km/h 90% 0.0 mm 0 W/m2
05:32 3.6 °C 2.1 °C 1019.0 hPa WNW 4.7 km/h 4.8 km/h 90% 0.0 mm 0 W/m2
05:37 3.6 °C 2.1 °C 1019.0 hPa WNW 4.7 km/h 8 km/h 90% 0.0 mm 0 W/m2
05:42 3.6 °C 2.1 °C 1019.3 hPa WNW 14.3 km/h 14.5 km/h 90% 0.0 mm 0 W/m2
05:47 3.7 °C 2.1 °C 1019.3 hPa West 6.4 km/h 9.7 km/h 89% 0.0 mm 0 W/m2
05:52 3.7 °C 2.1 °C 1019.6 hPa WNW 6.4 km/h 9.7 km/h 89% 0.0 mm 0 W/m2
05:57 3.7 °C 2.1 °C 1019.6 hPa WNW 4.7 km/h 6.4 km/h 89% 0.0 mm 0 W/m2
06:02 3.8 °C 2 °C 1019.6 hPa WNW 3.2 km/h 6.4 km/h 88% 0.0 mm 0 W/m2
06:07 3.8 °C 2 °C 1019.6 hPa WNW 4.7 km/h 9.7 km/h 88% 0.0 mm 0 W/m2
06:12 3.8 °C 2 °C 1019.6 hPa NW 4.7 km/h 6.4 km/h 88% 0.0 mm 0 W/m2
06:17 3.8 °C 1.8 °C 1019.6 hPa NW 9.7 km/h 11.3 km/h 87% 0.0 mm 0 W/m2
06:22 3.8 °C 1.7 °C 1019.6 hPa West 6.4 km/h 12.9 km/h 86% 0.0 mm 0 W/m2
06:27 3.9 °C 1.8 °C 1019.6 hPa WNW 11.1 km/h 12.9 km/h 86% 0.0 mm 0 W/m2
06:32 3.9 °C 1.8 °C 1019.6 hPa WNW 6.4 km/h 8 km/h 86% 0.0 mm 0 W/m2
06:37 3.8 °C 1.7 °C 1020.0 hPa NW 4.7 km/h 14.5 km/h 86% 0.0 mm 0 W/m2
06:42 3.8 °C 1.7 °C 1020.0 hPa West 3.2 km/h 12.9 km/h 86% 0.0 mm 0 W/m2
06:47 3.8 °C 1.5 °C 1020.0 hPa NW 6.4 km/h 14.5 km/h 85% 0.0 mm 0 W/m2
06:52 3.8 °C 1.5 °C 1020.3 hPa NW 7.9 km/h 12.9 km/h 85% 0.0 mm 0 W/m2
06:57 3.8 °C 1.5 °C 1020.3 hPa WNW 6.4 km/h 12.9 km/h 85% 0.0 mm 0 W/m2
07:02 3.7 °C 1.4 °C 1020.3 hPa North 3.2 km/h 11.3 km/h 85% 0.0 mm 0 W/m2
07:07 3.7 °C 1.4 °C 1020.3 hPa NW 4.7 km/h 11.3 km/h 85% 0.0 mm 0 W/m2
07:12 3.6 °C 1.3 °C 1020.7 hPa NNW 13 km/h 16.1 km/h 85% 0.0 mm 0 W/m2
07:17 3.6 °C 1.3 °C 1020.7 hPa WNW 11.1 km/h 11.3 km/h 85% 0.0 mm 0 W/m2
07:22 3.6 °C 1.3 °C 1020.7 hPa NW 4.7 km/h 11.3 km/h 85% 0.0 mm 0 W/m2
07:27 3.5 °C 1.2 °C 1020.7 hPa WNW 3.2 km/h 9.7 km/h 85% 0.0 mm 0 W/m2
07:32 3.4 °C 1.1 °C 1021.0 hPa West 11.1 km/h 14.5 km/h 85% 0.0 mm 0 W/m2
07:37 3.3 °C 1 °C 1021.0 hPa WNW 3.2 km/h 8 km/h 85% 0.0 mm 0 W/m2
07:42 3.3 °C 0.9 °C 1021.0 hPa WSW 3.2 km/h 11.3 km/h 84% 0.0 mm 0 W/m2
07:47 3.2 °C 0.8 °C 1021.0 hPa NNW 3.2 km/h 6.4 km/h 84% 0.0 mm 0 W/m2
07:52 3.2 °C 0.8 °C 1021.3 hPa NNW 3.2 km/h 6.4 km/h 84% 0.0 mm 0 W/m2
07:57 3.2 °C 0.8 °C 1021.3 hPa NW 4.7 km/h 8 km/h 84% 0.0 mm 0 W/m2
08:02 3.1 °C 0.7 °C 1021.3 hPa NW 3.2 km/h 6.4 km/h 84% 0.0 mm 0 W/m2
08:07 3.1 °C 0.7 °C 1021.3 hPa WNW 4.7 km/h 9.7 km/h 84% 0.0 mm 0 W/m2
08:12 2.9 °C 0.5 °C 1021.3 hPa NW 4.7 km/h 12.9 km/h 84% 0.0 mm 0 W/m2
08:17 2.9 °C 0.5 °C 1021.3 hPa West 6.4 km/h 9.7 km/h 84% 0.0 mm 0 W/m2
08:22 2.9 °C 0.5 °C 1021.3 hPa WNW 1.4 km/h 4.8 km/h 84% 0.0 mm 0 W/m2
08:27 2.9 °C 0.5 °C 1021.3 hPa West 4.7 km/h 8 km/h 84% 0.0 mm 0 W/m2
08:32 2.8 °C 0.5 °C 1021.3 hPa WNW 4.7 km/h 9.7 km/h 85% 0.0 mm 0 W/m2
08:37 2.8 °C 0.5 °C 1021.7 hPa WNW 4.7 km/h 11.3 km/h 85% 0.0 mm 5 W/m2
08:43 2.8 °C 0.5 °C 1021.7 hPa WNW 3.2 km/h 11.3 km/h 85% 0.0 mm 5 W/m2
08:48 2.9 °C 0.6 °C 1021.7 hPa NW 4.7 km/h 17.7 km/h 85% 0.0 mm 7 W/m2
08:53 3 °C 0.6 °C 1021.7 hPa WNW 6.4 km/h 9.7 km/h 84% 0.0 mm 9 W/m2
08:58 3 °C 0.6 °C 1021.7 hPa West 6.4 km/h 11.3 km/h 84% 0.0 mm 11 W/m2
09:03 3.1 °C 0.7 °C 1021.7 hPa WNW 4.7 km/h 12.9 km/h 84% 0.0 mm 11 W/m2
09:08 3 °C 0.6 °C 1022.0 hPa WNW 4.7 km/h 6.4 km/h 84% 0.0 mm 11 W/m2
09:13 2.9 °C 0.5 °C 1022.0 hPa West 4.7 km/h 9.7 km/h 84% 0.0 mm 12 W/m2
09:18 2.9 °C 0.5 °C 1022.0 hPa NW 3.2 km/h 11.3 km/h 84% 0.0 mm 12 W/m2
09:23 2.9 °C 0.5 °C 1022.4 hPa WNW 1.4 km/h 11.3 km/h 84% 0.0 mm 14 W/m2
09:28 2.9 °C 0.5 °C 1022.4 hPa West 3.2 km/h 9.7 km/h 84% 0.0 mm 21 W/m2
09:33 2.8 °C 0.4 °C 1022.4 hPa WNW 1.4 km/h 11.3 km/h 84% 0.0 mm 19 W/m2
09:38 2.8 °C 0.4 °C 1022.4 hPa WNW 1.4 km/h 4.8 km/h 84% 0.0 mm 21 W/m2
09:43 2.7 °C 0.3 °C 1022.4 hPa WNW 4.7 km/h 9.7 km/h 84% 0.0 mm 23 W/m2
09:48 2.7 °C 0.3 °C 1022.4 hPa WNW 3.2 km/h 6.4 km/h 84% 0.0 mm 26 W/m2
09:53 2.7 °C 0.4 °C 1022.4 hPa West 3.2 km/h 6.4 km/h 85% 0.0 mm 32 W/m2
09:58 2.7 °C 0.4 °C 1022.7 hPa NNW 4.7 km/h 4.8 km/h 85% 0.0 mm 33 W/m2
10:03 2.8 °C 0.5 °C 1022.7 hPa Calm   6.4 km/h 85% 0.0 mm 32 W/m2
10:08 2.8 °C 0.4 °C 1022.7 hPa WNW 9.7 km/h 9.7 km/h 84% 0.0 mm 30 W/m2
10:13 2.8 °C 0.4 °C 1022.7 hPa NE 7.9 km/h 11.3 km/h 84% 0.0 mm 30 W/m2
10:18 2.8 °C 0.4 °C 1023.0 hPa WNW 7.9 km/h 9.7 km/h 84% 0.0 mm 28 W/m2
10:23 2.9 °C 0.3 °C 1023.0 hPa NNW 4.7 km/h 12.9 km/h 83% 0.0 mm 28 W/m2
10:28 3 °C 0.4 °C 1023.0 hPa West 6.4 km/h 12.9 km/h 83% 0.0 mm 30 W/m2
10:33 3.1 °C 0.5 °C 1023.0 hPa West 6.4 km/h 11.3 km/h 83% 0.0 mm 30 W/m2
10:38 3.1 °C 0.5 °C 1023.0 hPa NW 3.2 km/h 8 km/h 83% 0.0 mm 30 W/m2
10:43 3.1 °C 0.3 °C 1023.4 hPa WNW 4.7 km/h 8 km/h 82% 0.0 mm 28 W/m2
10:48 3 °C 0.2 °C 1023.4 hPa North 4.7 km/h 14.5 km/h 82% 0.0 mm 28 W/m2
10:53 3 °C 0.2 °C 1023.0 hPa NW 1.4 km/h 4.8 km/h 82% 0.0 mm 26 W/m2
10:58 3 °C 0.2 °C 1023.0 hPa ENE 3.2 km/h 14.5 km/h 82% 0.0 mm 28 W/m2
11:03 3 °C 0.2 °C 1023.0 hPa NNW 4.7 km/h 6.4 km/h 82% 0.0 mm 30 W/m2
11:08 3 °C 0.2 °C 1023.0 hPa NNW 4.7 km/h 6.4 km/h 82% 0.0 mm 28 W/m2
11:13 3.1 °C 0.2 °C 1023.0 hPa WNW 14.3 km/h 17.7 km/h 81% 0.0 mm 28 W/m2
11:18 3.1 °C 0.2 °C 1023.0 hPa West 4.7 km/h 9.7 km/h 81% 0.0 mm 26 W/m2
11:23 3.2 °C 0.3 °C 1023.0 hPa WNW 17.7 km/h 17.7 km/h 81% 0.0 mm 26 W/m2
11:28 3.2 °C 0.3 °C 1023.0 hPa NW 3.2 km/h 11.3 km/h 81% 0.0 mm 28 W/m2
11:33 3.3 °C 0.2 °C 1023.0 hPa WNW 3.2 km/h 6.4 km/h 80% 0.0 mm 28 W/m2
11:38 3.4 °C 0.3 °C 1023.0 hPa NW 1.4 km/h 11.3 km/h 80% 0.0 mm 28 W/m2
11:43 3.5 °C 0.4 °C 1023.0 hPa NE 4.7 km/h 12.9 km/h 80% 0.0 mm 39 W/m2
11:48 3.6 °C 0.3 °C 1023.4 hPa WSW 4.7 km/h 12.9 km/h 79% 0.0 mm 30 W/m2
11:53 3.7 °C 0.4 °C 1023.4 hPa NNW 6.4 km/h 9.7 km/h 79% 0.0 mm 32 W/m2
11:58 3.8 °C 0.5 °C 1023.4 hPa WNW 7.9 km/h 14.5 km/h 79% 0.0 mm 54 W/m2
12:03 4 °C 0.5 °C 1023.4 hPa NW 14.3 km/h 14.5 km/h 78% 0.0 mm 67 W/m2
12:08 4.1 °C 0.6 °C 1023.4 hPa WSW 4.7 km/h 11.3 km/h 78% 0.0 mm 111 W/m2
12:13 4.2 °C 0.7 °C 1023.4 hPa NE 3.2 km/h 14.5 km/h 78% 0.0 mm 114 W/m2
12:18 4.2 °C 0.5 °C 1023.4 hPa WNW 7.9 km/h 14.5 km/h 77% 0.0 mm 49 W/m2
12:23 4.2 °C 0.3 °C 1023.4 hPa North 6.4 km/h 14.5 km/h 76% 0.0 mm 51 W/m2
12:28 4.2 °C 0.5 °C 1023.4 hPa WNW 3.2 km/h 8 km/h 77% 0.0 mm 39 W/m2
12:33 4.3 °C 0.6 °C 1023.4 hPa ENE 7.9 km/h 12.9 km/h 77% 0.0 mm 67 W/m2
12:38 4.3 °C 0.8 °C 1023.4 hPa North 4.7 km/h 6.4 km/h 78% 0.0 mm 79 W/m2
12:43 4.3 °C 0.6 °C 1023.0 hPa North 4.7 km/h 12.9 km/h 77% 0.0 mm 77 W/m2
12:48 4.4 °C 0.9 °C 1023.0 hPa WNW 6.4 km/h 12.9 km/h 78% 0.0 mm 105 W/m2
12:53 4.5 °C 1.2 °C 1023.0 hPa West 11.1 km/h 12.9 km/h 79% 0.0 mm 100 W/m2
12:58 4.6 °C 1.1 °C 1023.0 hPa NNW 7.9 km/h 16.1 km/h 78% 0.0 mm 86 W/m2
13:03 4.7 °C 1.4 °C 1023.0 hPa West 3.2 km/h 6.4 km/h 79% 0.0 mm 56 W/m2
13:08 4.7 °C 1.4 °C 1023.0 hPa WNW 3.2 km/h 12.9 km/h 79% 0.0 mm 60 W/m2
13:13 4.7 °C 1.2 °C 1023.0 hPa NNW 13 km/h 16.1 km/h 78% 0.0 mm 51 W/m2
13:18 4.6 °C 0.9 °C 1023.0 hPa NNW 6.4 km/h 20.9 km/h 77% 0.0 mm 67 W/m2
13:23 4.6 °C 1.1 °C 1023.0 hPa East 1.4 km/h 16.1 km/h 78% 0.0 mm 76 W/m2
13:28 4.5 °C 1 °C 1023.0 hPa North 6.4 km/h 8 km/h 78% 0.0 mm 70 W/m2
13:33 4.5 °C 1.2 °C 1023.0 hPa WNW 6.4 km/h 16.1 km/h 79% 0.0 mm 67 W/m2
13:38 4.4 °C 0.9 °C 1023.0 hPa ESE 3.2 km/h 6.4 km/h 78% 0.0 mm 72 W/m2
13:43 4.4 °C 0.9 °C 1023.0 hPa NE 1.4 km/h 9.7 km/h 78% 0.0 mm 67 W/m2
13:48 4.4 °C 0.9 °C 1023.0 hPa West 4.7 km/h 6.4 km/h 78% 0.0 mm 49 W/m2
13:53 4.5 °C 0.8 °C 1023.0 hPa West 9.7 km/h 9.7 km/h 77% 0.0 mm 32 W/m2
13:58 4.4 °C 0.5 °C 1023.0 hPa WNW 6.4 km/h 12.9 km/h 76% 0.0 mm 32 W/m2
14:03 4.5 °C 0.6 °C 1023.0 hPa NW 3.2 km/h 12.9 km/h 76% 0.0 mm 32 W/m2
14:08 4.5 °C 0.5 °C 1023.0 hPa West 14.3 km/h 17.7 km/h 75% 0.0 mm 37 W/m2
14:13 4.6 °C 0.6 °C 1023.0 hPa NW 1.4 km/h 17.7 km/h 75% 0.0 mm 35 W/m2
14:18 4.6 °C 0.4 °C 1023.0 hPa NW 4.7 km/h 12.9 km/h 74% 0.0 mm 28 W/m2
14:23 4.6 °C 0.2 °C 1023.0 hPa West 9.7 km/h 17.7 km/h 73% 0.0 mm 26 W/m2
14:28 4.7 °C 0.3 °C 1023.0 hPa West 3.2 km/h 9.7 km/h 73% 0.0 mm 28 W/m2
14:33 4.7 °C 0.5 °C 1023.0 hPa North 4.7 km/h 8 km/h 74% 0.0 mm 28 W/m2
14:38 4.7 °C 0.1 °C 1023.0 hPa WNW 4.7 km/h 8 km/h 72% 0.0 mm 28 W/m2
14:43 4.7 °C 0.1 °C 1023.0 hPa ESE 4.7 km/h 14.5 km/h 72% 0.0 mm 39 W/m2
14:48 4.7 °C 0.1 °C 1023.0 hPa SW 6.4 km/h 8 km/h 72% 0.0 mm 49 W/m2
14:53 4.8 °C 0.4 °C 1023.0 hPa North 11.1 km/h 14.5 km/h 73% 0.0 mm 35 W/m2
14:58 4.8 °C 0.2 °C 1023.0 hPa East 1.4 km/h 8 km/h 72% 0.0 mm 79 W/m2
15:03 4.8 °C 0.4 °C 1023.0 hPa North 1.4 km/h 6.4 km/h 73% 0.0 mm 69 W/m2
15:08 4.9 °C 0.5 °C 1023.0 hPa WNW 3.2 km/h 6.4 km/h 73% 0.0 mm 54 W/m2
15:13 5 °C 0.4 °C 1023.0 hPa North 3.2 km/h 6.4 km/h 72% 0.0 mm 46 W/m2
15:18 5 °C 0.4 °C 1023.0 hPa NNE 4.7 km/h 8 km/h 72% 0.0 mm 40 W/m2
15:23 5.1 °C 0.5 °C 1023.0 hPa NW 3.2 km/h 4.8 km/h 72% 0.0 mm 33 W/m2
15:29 5 °C 0.2 °C 1023.0 hPa NW 1.4 km/h 17.7 km/h 71% 0.0 mm 35 W/m2
15:34 5.1 °C 0.7 °C 1023.0 hPa NNE 3.2 km/h 3.2 km/h 73% 0.0 mm 37 W/m2
15:39 5 °C 0.6 °C 1023.4 hPa West 3.2 km/h 17.7 km/h 73% 0.0 mm 23 W/m2
15:44 4.9 °C 0.3 °C 1023.4 hPa WNW 6.4 km/h 9.7 km/h 72% 0.0 mm 19 W/m2
15:49 4.9 °C 0.1 °C 1023.4 hPa NW 4.7 km/h 6.4 km/h 71% 0.0 mm 18 W/m2
15:54 4.8 °C 0.2 °C 1023.4 hPa WNW 4.7 km/h 6.4 km/h 72% 0.0 mm 18 W/m2
15:59 4.7 °C 0.3 °C 1023.4 hPa NW 9.7 km/h 12.9 km/h 73% 0.0 mm 14 W/m2
16:04 4.6 °C 0.4 °C 1023.4 hPa West 9.7 km/h 16.1 km/h 74% 0.0 mm 12 W/m2
16:09 4.5 °C 0.3 °C 1023.4 hPa WNW 6.4 km/h 9.7 km/h 74% 0.0 mm 12 W/m2
16:14 4.4 °C 0.4 °C 1023.4 hPa WNW 4.7 km/h 11.3 km/h 75% 0.0 mm 11 W/m2
16:19 4.3 °C 0.4 °C 1023.4 hPa WNW 7.9 km/h 17.7 km/h 76% 0.0 mm 11 W/m2
16:24 4.2 °C 0.3 °C 1023.7 hPa NW 13 km/h 17.7 km/h 76% 0.0 mm 9 W/m2
16:29 4.2 °C 0.5 °C 1023.7 hPa West 9.7 km/h 16.1 km/h 77% 0.0 mm 7 W/m2
16:34 4.1 °C 0.4 °C 1023.7 hPa West 14.3 km/h 14.5 km/h 77% 0.0 mm 5 W/m2
16:39 4.1 °C 0.4 °C 1023.7 hPa NW 9.7 km/h 14.5 km/h 77% 0.0 mm 5 W/m2
16:44 4 °C 0.5 °C 1023.7 hPa West 6.4 km/h 16.1 km/h 78% 0.0 mm 0 W/m2
16:49 3.9 °C 0.4 °C 1023.7 hPa West 6.4 km/h 11.3 km/h 78% 0.0 mm 0 W/m2
16:54 3.8 °C 0.3 °C 1023.7 hPa WNW 4.7 km/h 16.1 km/h 78% 0.0 mm 0 W/m2
16:59 3.7 °C 0.4 °C 1024.0 hPa West 4.7 km/h 6.4 km/h 79% 0.0 mm 0 W/m2
17:04 3.6 °C 0.5 °C 1024.0 hPa WNW 3.2 km/h 4.8 km/h 80% 0.0 mm 0 W/m2
17:09 3.4 °C 0.3 °C 1024.0 hPa Calm   3.2 km/h 80% 0.0 mm 0 W/m2
17:14 3.3 °C 0.4 °C 1024.0 hPa Calm   3.2 km/h 81% 0.0 mm 0 W/m2
17:19 3.3 °C 0.4 °C 1024.0 hPa WNW 1.4 km/h 6.4 km/h 81% 0.0 mm 0 W/m2
17:24 3.3 °C 0.5 °C 1024.0 hPa WNW 3.2 km/h 3.2 km/h 82% 0.0 mm 0 W/m2
17:29 3.2 °C 0.4 °C 1024.4 hPa West 1.4 km/h 1.6 km/h 82% 0.0 mm 0 W/m2
17:34 3.2 °C 0.6 °C 1024.4 hPa Calm   1.6 km/h 83% 0.0 mm 0 W/m2
17:39 3.2 °C 0.6 °C 1024.4 hPa West 1.4 km/h 3.2 km/h 83% 0.0 mm 0 W/m2
17:44 3.2 °C 0.6 °C 1024.4 hPa West 9.7 km/h 11.3 km/h 83% 0.0 mm 0 W/m2
17:49 3.2 °C 0.6 °C 1024.4 hPa WSW 4.7 km/h 6.4 km/h 83% 0.0 mm 0 W/m2
17:54 3.3 °C 0.7 °C 1024.4 hPa NW 3.2 km/h 14.5 km/h 83% 0.0 mm 0 W/m2
17:59 3.3 °C 0.7 °C 1024.0 hPa West 3.2 km/h 9.7 km/h 83% 0.0 mm 0 W/m2
18:04 3.4 °C 0.6 °C 1024.0 hPa WNW 4.7 km/h 14.5 km/h 82% 0.0 mm 0 W/m2
18:09 3.4 °C 0.6 °C 1024.0 hPa West 9.7 km/h 14.5 km/h 82% 0.0 mm 0 W/m2
18:14 3.5 °C 0.5 °C 1024.0 hPa WNW 6.4 km/h 11.3 km/h 81% 0.0 mm 0 W/m2
18:19 3.5 °C 0.5 °C 1024.0 hPa WNW 3.2 km/h 12.9 km/h 81% 0.0 mm 0 W/m2
18:24 3.4 °C 0.4 °C 1024.0 hPa West 3.2 km/h 4.8 km/h 81% 0.0 mm 0 W/m2
18:29 3.3 °C 0.4 °C 1024.0 hPa West 3.2 km/h 8 km/h 81% 0.0 mm 0 W/m2
18:34 3.2 °C 0.4 °C 1024.0 hPa WNW 1.4 km/h 4.8 km/h 82% 0.0 mm 0 W/m2
18:39 3 °C 0.4 °C 1024.0 hPa West 4.7 km/h 6.4 km/h 83% 0.0 mm 0 W/m2
18:44 2.8 °C 0.2 °C 1024.4 hPa West 3.2 km/h 4.8 km/h 83% 0.0 mm 0 W/m2
18:49 2.7 °C 0.1 °C 1024.4 hPa West 4.7 km/h 6.4 km/h 83% 0.0 mm 0 W/m2
18:54 2.6 °C 0.2 °C 1024.4 hPa WSW 4.7 km/h 6.4 km/h 84% 0.0 mm 0 W/m2
18:59 2.6 °C 0.2 °C 1024.4 hPa West 3.2 km/h 6.4 km/h 84% 0.0 mm 0 W/m2
19:04 2.6 °C 0.2 °C 1024.4 hPa West 4.7 km/h 6.4 km/h 84% 0.0 mm 0 W/m2
19:09 2.5 °C 0.2 °C 1024.4 hPa WNW 4.7 km/h 9.7 km/h 85% 0.0 mm 0 W/m2
19:14 2.5 °C 0.2 °C 1024.7 hPa West 4.7 km/h 6.4 km/h 85% 0.0 mm 0 W/m2
19:19 2.6 °C 0.3 °C 1024.7 hPa West 4.7 km/h 6.4 km/h 85% 0.0 mm 0 W/m2
19:24 2.6 °C 0.3 °C 1024.7 hPa WSW 11.1 km/h 11.3 km/h 85% 0.0 mm 0 W/m2
19:29 2.6 °C 0.3 °C 1024.7 hPa WNW 6.4 km/h 6.4 km/h 85% 0.0 mm 0 W/m2
19:34 2.6 °C 0.3 °C 1024.7 hPa WSW 6.4 km/h 11.3 km/h 85% 0.0 mm 0 W/m2
19:39 2.6 °C 0.3 °C 1025.1 hPa West 6.4 km/h 6.4 km/h 85% 0.0 mm 0 W/m2
19:44 2.7 °C 0.4 °C 1025.1 hPa West 3.2 km/h 11.3 km/h 85% 0.0 mm 0 W/m2
19:49 2.6 °C 0.3 °C 1025.1 hPa West 1.4 km/h 4.8 km/h 85% 0.0 mm 0 W/m2
19:54 2.6 °C 0.3 °C 1025.1 hPa WNW 4.7 km/h 11.3 km/h 85% 0.0 mm 0 W/m2
19:59 2.5 °C 0.2 °C 1025.1 hPa West 1.4 km/h 4.8 km/h 85% 0.0 mm 0 W/m2
20:04 2.4 °C 0.1 °C 1025.1 hPa West 3.2 km/h 6.4 km/h 85% 0.0 mm 0 W/m2
20:09 2.3 °C 0.2 °C 1025.1 hPa Calm   4.8 km/h 86% 0.0 mm 0 W/m2
Juneau County Weather
Compliments of Weather Underground - 2 mb